sensor_id;sensor_type;location;lat;lon;timestamp;pressure;altitude;pressure_sealevel;temperature;humidity
74329;BME280;62749;51.982;5.916;2023-05-10T00:00:20;100597.88;;;13.71;100.00
74329;BME280;62749;51.982;5.916;2023-05-10T00:02:52;100599.31;;;13.76;100.00
74329;BME280;62749;51.982;5.916;2023-05-10T00:05:22;100598.19;;;13.80;100.00
74329;BME280;62749;51.982;5.916;2023-05-10T00:07:51;100592.28;;;13.75;100.00
74329;BME280;62749;51.982;5.916;2023-05-10T00:10:20;100600.84;;;13.80;100.00
74329;BME280;62749;51.982;5.916;2023-05-10T00:12:50;100598.38;;;13.77;100.00
74329;BME280;62749;51.982;5.916;2023-05-10T00:15:19;100602.84;;;13.77;100.00
74329;BME280;62749;51.982;5.916;2023-05-10T00:17:51;100602.75;;;13.78;100.00
74329;BME280;62749;51.982;5.916;2023-05-10T00:20:21;100605.13;;;13.83;100.00
74329;BME280;62749;51.982;5.916;2023-05-10T00:22:50;100601.72;;;13.81;99.69
74329;BME280;62749;51.982;5.916;2023-05-10T00:25:19;100602.91;;;13.75;99.66
74329;BME280;62749;51.982;5.916;2023-05-10T00:27:49;100581.44;;;13.64;100.00
74329;BME280;62749;51.982;5.916;2023-05-10T00:30:21;100579.00;;;13.61;100.00
74329;BME280;62749;51.982;5.916;2023-05-10T00:32:53;100597.25;;;13.81;100.00
74329;BME280;62749;51.982;5.916;2023-05-10T00:35:23;100593.38;;;13.87;100.00
74329;BME280;62749;51.982;5.916;2023-05-10T00:37:53;100594.50;;;13.83;100.00
74329;BME280;62749;51.982;5.916;2023-05-10T00:40:22;100589.13;;;13.85;100.00
74329;BME280;62749;51.982;5.916;2023-05-10T00:42:52;100595.56;;;13.80;100.00
74329;BME280;62749;51.982;5.916;2023-05-10T00:45:21;100591.78;;;13.85;100.00
74329;BME280;62749;51.982;5.916;2023-05-10T00:47:53;100592.91;;;13.80;100.00
74329;BME280;62749;51.982;5.916;2023-05-10T00:50:23;100599.06;;;13.81;100.00
74329;BME280;62749;51.982;5.916;2023-05-10T00:52:53;100580.72;;;13.76;100.00
74329;BME280;62749;51.982;5.916;2023-05-10T00:55:22;100593.38;;;13.87;100.00
74329;BME280;62749;51.982;5.916;2023-05-10T00:57:52;100584.16;;;13.78;100.00
74329;BME280;62749;51.982;5.916;2023-05-10T01:00:22;100580.66;;;13.78;100.00
74329;BME280;62749;51.982;5.916;2023-05-10T01:02:55;100587.31;;;13.85;100.00
74329;BME280;62749;51.982;5.916;2023-05-10T01:05:24;100591.00;;;13.83;99.94
74329;BME280;62749;51.982;5.916;2023-05-10T01:07:54;100589.41;;;13.80;99.61
74329;BME280;62749;51.982;5.916;2023-05-10T01:10:23;100581.00;;;13.72;100.00
74329;BME280;62749;51.982;5.916;2023-05-10T01:12:53;100586.53;;;13.83;100.00
74329;BME280;62749;51.982;5.916;2023-05-10T01:15:26;100586.16;;;13.75;100.00
74329;BME280;62749;51.982;5.916;2023-05-10T01:18:00;100582.75;;;13.87;100.00
74329;BME280;62749;51.982;5.916;2023-05-10T01:20:51;100577.28;;;13.90;100.00
74329;BME280;62749;51.982;5.916;2023-05-10T01:23:50;100587.81;;;13.92;100.00
74329;BME280;62749;51.982;5.916;2023-05-10T01:30:05;100585.44;;;13.87;99.61
74329;BME280;62749;51.982;5.916;2023-05-10T01:32:44;100590.06;;;13.84;99.81
74329;BME280;62749;51.982;5.916;2023-05-10T01:35:26;100590.84;;;13.86;99.98
74329;BME280;62749;51.982;5.916;2023-05-10T01:38:04;100592.44;;;13.88;100.00
74329;BME280;62749;51.982;5.916;2023-05-10T01:40:44;100597.84;;;13.87;99.68
74329;BME280;62749;51.982;5.916;2023-05-10T01:43:22;100591.56;;;13.88;99.78
74329;BME280;62749;51.982;5.916;2023-05-10T01:46:04;100593.50;;;13.86;99.89
74329;BME280;62749;51.982;5.916;2023-05-10T01:48:44;100590.84;;;13.86;100.00
74329;BME280;62749;51.982;5.916;2023-05-10T01:51:22;100591.34;;;13.92;100.00
74329;BME280;62749;51.982;5.916;2023-05-10T01:53:58;100587.03;;;13.90;100.00
74329;BME280;62749;51.982;5.916;2023-05-10T01:56:32;100588.47;;;13.95;100.00
74329;BME280;62749;51.982;5.916;2023-05-10T01:59:08;100594.06;;;13.91;100.00
74329;BME280;62749;51.982;5.916;2023-05-10T02:01:40;100586.69;;;13.96;100.00
74329;BME280;62749;51.982;5.916;2023-05-10T02:04:16;100592.16;;;13.93;99.69
74329;BME280;62749;51.982;5.916;2023-05-10T02:06:47;100593.88;;;13.94;99.87
74329;BME280;62749;51.982;5.916;2023-05-10T02:09:20;100591.41;;;13.91;99.59
74329;BME280;62749;51.982;5.916;2023-05-10T02:11:56;100595.38;;;13.84;99.91
74329;BME280;62749;51.982;5.916;2023-05-10T02:14:29;100589.03;;;13.86;100.00
74329;BME280;62749;51.982;5.916;2023-05-10T02:17:02;100593.88;;;13.94;100.00
74329;BME280;62749;51.982;5.916;2023-05-10T02:19:38;100586.63;;;13.81;100.00
74329;BME280;62749;51.982;5.916;2023-05-10T02:22:09;100595.19;;;13.87;99.38
74329;BME280;62749;51.982;5.916;2023-05-10T02:24:41;100599.91;;;13.81;99.31
74329;BME280;62749;51.982;5.916;2023-05-10T02:27:12;100598.56;;;13.74;99.78
74329;BME280;62749;51.982;5.916;2023-05-10T02:29:44;100601.63;;;13.83;100.00
74329;BME280;62749;51.982;5.916;2023-05-10T02:32:17;100605.31;;;13.80;99.92
74329;BME280;62749;51.982;5.916;2023-05-10T02:34:49;100609.88;;;13.78;99.91
74329;BME280;62749;51.982;5.916;2023-05-10T02:37:21;100609.38;;;13.71;99.80
74329;BME280;62749;51.982;5.916;2023-05-10T02:39:54;100605.66;;;13.74;100.00
74329;BME280;62749;51.982;5.916;2023-05-10T02:42:27;100606.44;;;13.76;100.00
74329;BME280;62749;51.982;5.916;2023-05-10T02:45:00;100618.41;;;13.83;99.98
74329;BME280;62749;51.982;5.916;2023-05-10T02:47:30;100608.06;;;13.78;100.00
74329;BME280;62749;51.982;5.916;2023-05-10T02:50:03;100614.13;;;13.80;100.00
74329;BME280;62749;51.982;5.916;2023-05-10T02:52:39;100618.22;;;13.86;100.00
74329;BME280;62749;51.982;5.916;2023-05-10T02:55:12;100616.63;;;13.84;99.42
74329;BME280;62749;51.982;5.916;2023-05-10T02:57:49;100620.81;;;13.72;99.31
74329;BME280;62749;51.982;5.916;2023-05-10T03:00:20;100621.88;;;13.69;99.49
74329;BME280;62749;51.982;5.916;2023-05-10T03:02:49;100618.44;;;13.67;99.36
74329;BME280;62749;51.982;5.916;2023-05-10T03:05:21;100618.97;;;13.58;99.51
74329;BME280;62749;51.982;5.916;2023-05-10T03:07:52;100619.06;;;13.56;99.82
74329;BME280;62749;51.982;5.916;2023-05-10T03:10:29;100620.75;;;13.57;100.00
74329;BME280;62749;51.982;5.916;2023-05-10T03:13:09;100623.53;;;13.56;100.00
74329;BME280;62749;51.982;5.916;2023-05-10T03:15:50;100626.06;;;13.57;100.00
74329;BME280;62749;51.982;5.916;2023-05-10T03:18:25;100618.31;;;13.54;99.96
74329;BME280;62749;51.982;5.916;2023-05-10T03:21:03;100625.56;;;13.50;99.82
74329;BME280;62749;51.982;5.916;2023-05-10T03:23:35;100625.56;;;13.50;99.76
74329;BME280;62749;51.982;5.916;2023-05-10T03:26:09;100626.44;;;13.51;99.78
74329;BME280;62749;51.982;5.916;2023-05-10T03:28:39;100627.28;;;13.52;99.96
74329;BME280;62749;51.982;5.916;2023-05-10T03:31:09;100626.59;;;13.48;99.42
74329;BME280;62749;51.982;5.916;2023-05-10T03:33:45;100625.94;;;13.44;99.32
74329;BME280;62749;51.982;5.916;2023-05-10T03:36:18;100625.75;;;13.47;98.86
74329;BME280;62749;51.982;5.916;2023-05-10T03:38:47;100634.66;;;13.46;98.92
74329;BME280;62749;51.982;5.916;2023-05-10T03:41:17;100629.25;;;13.48;98.62
74329;BME280;62749;51.982;5.916;2023-05-10T03:43:47;100636.28;;;13.49;98.88
74329;BME280;62749;51.982;5.916;2023-05-10T03:46:16;100637.13;;;13.49;98.42
74329;BME280;62749;51.982;5.916;2023-05-10T03:48:45;100631.91;;;13.48;98.22
74329;BME280;62749;51.982;5.916;2023-05-10T03:51:17;100638.94;;;13.49;98.74
74329;BME280;62749;51.982;5.916;2023-05-10T03:53:47;100643.19;;;13.52;98.68
74329;BME280;62749;51.982;5.916;2023-05-10T03:56:16;100649.72;;;13.46;98.06
74329;BME280;62749;51.982;5.916;2023-05-10T03:58:47;100652.63;;;13.41;97.31
74329;BME280;62749;51.982;5.916;2023-05-10T04:01:16;100650.09;;;13.38;97.43
74329;BME280;62749;51.982;5.916;2023-05-10T04:03:45;100659.94;;;13.36;96.92
74329;BME280;62749;51.982;5.916;2023-05-10T04:06:17;100662.78;;;13.33;97.87
74329;BME280;62749;51.982;5.916;2023-05-10T04:08:47;100661.66;;;13.37;97.42
74329;BME280;62749;51.982;5.916;2023-05-10T04:11:16;100668.25;;;13.30;97.06
74329;BME280;62749;51.982;5.916;2023-05-10T04:14:03;100665.63;;;13.30;97.78
74329;BME280;62749;51.982;5.916;2023-05-10T04:16:32;100671.53;;;13.35;97.72
74329;BME280;62749;51.982;5.916;2023-05-10T04:19:02;100662.44;;;13.39;97.66
74329;BME280;62749;51.982;5.916;2023-05-10T04:21:34;100665.25;;;13.36;97.51
74329;BME280;62749;51.982;5.916;2023-05-10T04:24:04;100663.09;;;13.44;97.32
74329;BME280;62749;51.982;5.916;2023-05-10T04:26:34;100665.09;;;13.39;96.89
74329;BME280;62749;51.982;5.916;2023-05-10T04:29:03;100661.75;;;13.35;97.29
74329;BME280;62749;51.982;5.916;2023-05-10T04:31:33;100669.03;;;13.32;97.70
74329;BME280;62749;51.982;5.916;2023-05-10T04:34:02;100674.81;;;13.40;98.21
74329;BME280;62749;51.982;5.916;2023-05-10T04:36:35;100671.44;;;13.37;97.17
74329;BME280;62749;51.982;5.916;2023-05-10T04:39:04;100665.44;;;13.33;96.42
74329;BME280;62749;51.982;5.916;2023-05-10T04:41:34;100668.69;;;13.22;95.82
74329;BME280;62749;51.982;5.916;2023-05-10T04:44:04;100667.59;;;13.10;96.90
74329;BME280;62749;51.982;5.916;2023-05-10T04:46:33;100675.53;;;13.26;97.39
74329;BME280;62749;51.982;5.916;2023-05-10T04:49:02;100682.03;;;13.20;97.89
74329;BME280;62749;51.982;5.916;2023-05-10T04:51:34;100670.91;;;13.30;97.63
74329;BME280;62749;51.982;5.916;2023-05-10T04:54:04;100674.66;;;13.26;97.53
74329;BME280;62749;51.982;5.916;2023-05-10T04:56:33;100673.84;;;13.25;97.99
74329;BME280;62749;51.982;5.916;2023-05-10T04:59:03;100677.78;;;13.34;97.58
74329;BME280;62749;51.982;5.916;2023-05-10T05:01:32;100677.78;;;13.34;97.16
74329;BME280;62749;51.982;5.916;2023-05-10T05:04:02;100677.06;;;13.30;96.50
74329;BME280;62749;51.982;5.916;2023-05-10T05:06:34;100682.38;;;13.30;96.61
74329;BME280;62749;51.982;5.916;2023-05-10T05:09:03;100674.34;;;13.32;96.36
74329;BME280;62749;51.982;5.916;2023-05-10T05:11:33;100677.94;;;13.31;96.55
74329;BME280;62749;51.982;5.916;2023-05-10T05:14:02;100683.81;;;13.36;96.46
74329;BME280;62749;51.982;5.916;2023-05-10T05:16:31;100682.44;;;13.46;96.34
74329;BME280;62749;51.982;5.916;2023-05-10T05:19:01;100688.06;;;13.40;96.18
74329;BME280;62749;51.982;5.916;2023-05-10T05:21:30;100691.22;;;13.47;96.19
74329;BME280;62749;51.982;5.916;2023-05-10T05:24:03;100689.53;;;13.46;97.19
74329;BME280;62749;51.982;5.916;2023-05-10T05:26:32;100688.31;;;13.52;97.56
74329;BME280;62749;51.982;5.916;2023-05-10T05:29:02;100687.63;;;13.48;97.11
74329;BME280;62749;51.982;5.916;2023-05-10T05:31:31;100699.72;;;13.54;96.27
74329;BME280;62749;51.982;5.916;2023-05-10T05:34:00;100690.66;;;13.58;95.71
74329;BME280;62749;51.982;5.916;2023-05-10T05:36:30;100693.13;;;13.61;95.68
74329;BME280;62749;51.982;5.916;2023-05-10T05:39:02;100691.16;;;13.64;95.30
74329;BME280;62749;51.982;5.916;2023-05-10T05:41:32;100689.28;;;13.67;95.44
74329;BME280;62749;51.982;5.916;2023-05-10T05:44:01;100689.34;;;13.65;95.21
74329;BME280;62749;51.982;5.916;2023-05-10T05:46:30;100679.94;;;13.59;95.96
74329;BME280;62749;51.982;5.916;2023-05-10T05:49:00;100698.59;;;13.74;95.22
74329;BME280;62749;51.982;5.916;2023-05-10T05:51:29;100689.44;;;13.63;94.56
74329;BME280;62749;51.982;5.916;2023-05-10T05:54:02;100695.94;;;13.74;95.04
74329;BME280;62749;51.982;5.916;2023-05-10T05:56:31;100694.81;;;13.78;95.14
74329;BME280;62749;51.982;5.916;2023-05-10T05:59:01;100690.03;;;13.85;95.19
74329;BME280;62749;51.982;5.916;2023-05-10T06:01:30;100702.16;;;13.89;95.68
74329;BME280;62749;51.982;5.916;2023-05-10T06:03:59;100699.34;;;13.92;94.35
74329;BME280;62749;51.982;5.916;2023-05-10T06:06:29;100697.13;;;13.84;93.91
74329;BME280;62749;51.982;5.916;2023-05-10T06:08:58;100712.38;;;13.80;94.38
74329;BME280;62749;51.982;5.916;2023-05-10T06:11:30;100704.50;;;13.79;94.67
74329;BME280;62749;51.982;5.916;2023-05-10T06:14:00;100706.13;;;13.81;94.74
74329;BME280;62749;51.982;5.916;2023-05-10T06:16:30;100712.09;;;13.85;95.11
74329;BME280;62749;51.982;5.916;2023-05-10T06:18:59;100706.72;;;13.87;94.73
74329;BME280;62749;51.982;5.916;2023-05-10T06:21:29;100704.13;;;13.85;94.36
74329;BME280;62749;51.982;5.916;2023-05-10T06:23:59;100706.88;;;13.84;94.13
74329;BME280;62749;51.982;5.916;2023-05-10T06:26:31;100718.97;;;13.73;94.28
74329;BME280;62749;51.982;5.916;2023-05-10T06:29:00;100714.00;;;13.67;94.95
74329;BME280;62749;51.982;5.916;2023-05-10T06:31:30;100729.59;;;13.73;95.14
74329;BME280;62749;51.982;5.916;2023-05-10T06:33:59;100729.84;;;13.69;94.88
74329;BME280;62749;51.982;5.916;2023-05-10T06:36:29;100729.66;;;13.72;95.06
74329;BME280;62749;51.982;5.916;2023-05-10T06:38:58;100728.56;;;13.76;94.97
74329;BME280;62749;51.982;5.916;2023-05-10T06:41:27;100733.88;;;13.76;95.27
74329;BME280;62749;51.982;5.916;2023-05-10T06:43:59;100742.94;;;13.72;94.89
74329;BME280;62749;51.982;5.916;2023-05-10T06:46:30;100737.28;;;13.62;95.47
74329;BME280;62749;51.982;5.916;2023-05-10T06:48:59;100738.06;;;13.64;95.94
74329;BME280;62749;51.982;5.916;2023-05-10T06:51:28;100742.78;;;13.59;95.85
74329;BME280;62749;51.982;5.916;2023-05-10T06:53:59;100741.16;;;13.72;95.78
74329;BME280;62749;51.982;5.916;2023-05-10T06:56:28;100748.41;;;13.69;96.10
74329;BME280;62749;51.982;5.916;2023-05-10T06:59:00;100746.97;;;13.79;96.29
74329;BME280;62749;51.982;5.916;2023-05-10T07:01:29;100745.78;;;13.85;95.01
74329;BME280;62749;51.982;5.916;2023-05-10T07:03:59;100745.69;;;13.86;94.83
74329;BME280;62749;51.982;5.916;2023-05-10T07:06:28;100752.44;;;13.92;95.07
74329;BME280;62749;51.982;5.916;2023-05-10T07:08:58;100756.03;;;13.91;94.67
74329;BME280;62749;51.982;5.916;2023-05-10T07:11:27;100757.69;;;13.93;94.67
74329;BME280;62749;51.982;5.916;2023-05-10T07:13:57;100752.28;;;13.95;95.00
74329;BME280;62749;51.982;5.916;2023-05-10T07:16:29;100764.75;;;14.09;94.25
74329;BME280;62749;51.982;5.916;2023-05-10T07:18:58;100769.03;;;13.95;93.92
74329;BME280;62749;51.982;5.916;2023-05-10T07:21:28;100764.63;;;13.96;93.92
74329;BME280;62749;51.982;5.916;2023-05-10T07:23:58;100756.66;;;13.96;94.21
74329;BME280;62749;51.982;5.916;2023-05-10T07:26:27;100769.50;;;14.04;94.47
74329;BME280;62749;51.982;5.916;2023-05-10T07:28:57;100779.84;;;14.08;94.42
74329;BME280;62749;51.982;5.916;2023-05-10T07:31:29;100777.78;;;14.14;93.58
74329;BME280;62749;51.982;5.916;2023-05-10T07:33:58;100768.19;;;14.11;93.70
74329;BME280;62749;51.982;5.916;2023-05-10T07:36:27;100778.22;;;14.06;93.47
74329;BME280;62749;51.982;5.916;2023-05-10T07:38:57;100773.44;;;14.13;93.14
74329;BME280;62749;51.982;5.916;2023-05-10T07:41:26;100782.47;;;14.24;92.97
74329;BME280;62749;51.982;5.916;2023-05-10T07:43:56;100784.78;;;14.31;93.03
74329;BME280;62749;51.982;5.916;2023-05-10T07:46:25;100783.56;;;14.36;92.89
74329;BME280;62749;51.982;5.916;2023-05-10T07:48:57;100788.03;;;14.36;92.29
74329;BME280;62749;51.982;5.916;2023-05-10T07:51:27;100784.06;;;14.43;92.64
74329;BME280;62749;51.982;5.916;2023-05-10T07:53:56;100794.88;;;14.40;91.74
74329;BME280;62749;51.982;5.916;2023-05-10T07:56:29;100796.53;;;14.26;91.91
74329;BME280;62749;51.982;5.916;2023-05-10T07:58:59;100805.53;;;14.24;92.26
74329;BME280;62749;51.982;5.916;2023-05-10T08:01:31;100788.84;;;14.22;92.50
74329;BME280;62749;51.982;5.916;2023-05-10T08:04:03;100796.09;;;14.34;92.20
74329;BME280;62749;51.982;5.916;2023-05-10T08:06:33;100793.31;;;14.52;91.79
74329;BME280;62749;51.982;5.916;2023-05-10T08:09:03;100796.72;;;14.54;91.57
74329;BME280;62749;51.982;5.916;2023-05-10T08:11:32;100808.56;;;14.64;90.58
74329;BME280;62749;51.982;5.916;2023-05-10T08:14:02;100797.66;;;14.69;90.17
74329;BME280;62749;51.982;5.916;2023-05-10T08:16:31;100807.94;;;14.75;91.30
74329;BME280;62749;51.982;5.916;2023-05-10T08:22:05;100805.44;;;15.02;89.58
74329;BME280;62749;51.982;5.916;2023-05-10T08:24:35;100809.56;;;14.92;88.51
74329;BME280;62749;51.982;5.916;2023-05-10T08:27:05;100812.72;;;14.99;89.08
74329;BME280;62749;51.982;5.916;2023-05-10T08:29:35;100810.91;;;14.85;88.68
74329;BME280;62749;51.982;5.916;2023-05-10T08:32:04;100820.88;;;14.81;88.85
74329;BME280;62749;51.982;5.916;2023-05-10T08:34:34;100819.44;;;14.60;87.68
74329;BME280;62749;51.982;5.916;2023-05-10T08:37:06;100820.56;;;14.55;89.33
74329;BME280;62749;51.982;5.916;2023-05-10T08:39:36;100822.28;;;14.56;88.60
74329;BME280;62749;51.982;5.916;2023-05-10T08:42:07;100824.25;;;14.53;90.17
74329;BME280;62749;51.982;5.916;2023-05-10T08:44:38;100827.28;;;14.47;89.26
74329;BME280;62749;51.982;5.916;2023-05-10T08:47:09;100830.88;;;14.46;88.09
74329;BME280;62749;51.982;5.916;2023-05-10T08:49:41;100838.00;;;14.29;86.83
74329;BME280;62749;51.982;5.916;2023-05-10T08:52:16;100848.84;;;14.26;87.74
74329;BME280;62749;51.982;5.916;2023-05-10T08:54:47;100846.75;;;14.31;86.95
74329;BME280;62749;51.982;5.916;2023-05-10T08:57:17;100858.06;;;14.51;88.37
74329;BME280;62749;51.982;5.916;2023-05-10T08:59:48;100846.97;;;14.58;86.85
74329;BME280;62749;51.982;5.916;2023-05-10T09:02:20;100863.25;;;14.68;84.88
74329;BME280;62749;51.982;5.916;2023-05-10T09:04:50;100869.19;;;14.73;84.64
74329;BME280;62749;51.982;5.916;2023-05-10T09:07:22;100864.72;;;14.74;86.17
74329;BME280;62749;51.982;5.916;2023-05-10T09:09:52;100864.22;;;14.67;84.10
74329;BME280;62749;51.982;5.916;2023-05-10T09:12:23;100863.09;;;14.55;85.22
74329;BME280;62749;51.982;5.916;2023-05-10T09:14:55;100872.88;;;14.71;84.04
74329;BME280;62749;51.982;5.916;2023-05-10T09:17:25;100864.69;;;14.90;84.54
74329;BME280;62749;51.982;5.916;2023-05-10T09:19:59;100870.78;;;15.07;84.05
74329;BME280;62749;51.982;5.916;2023-05-10T09:22:33;100863.50;;;15.25;82.42
74329;BME280;62749;51.982;5.916;2023-05-10T09:25:06;100877.69;;;15.25;81.27
74329;BME280;62749;51.982;5.916;2023-05-10T09:27:38;100880.91;;;15.30;80.87
74329;BME280;62749;51.982;5.916;2023-05-10T09:30:09;100873.94;;;15.13;78.47
74329;BME280;62749;51.982;5.916;2023-05-10T09:32:40;100892.84;;;15.09;78.83
74329;BME280;62749;51.982;5.916;2023-05-10T09:35:11;100896.81;;;15.01;78.72
74329;BME280;62749;51.982;5.916;2023-05-10T09:37:45;100898.78;;;14.98;79.12
74329;BME280;62749;51.982;5.916;2023-05-10T09:40:16;100896.81;;;15.01;80.06
74329;BME280;62749;51.982;5.916;2023-05-10T09:42:52;100891.63;;;15.14;80.26
74329;BME280;62749;51.982;5.916;2023-05-10T09:45:24;100910.00;;;15.33;79.43
74329;BME280;62749;51.982;5.916;2023-05-10T09:47:55;100914.75;;;15.28;78.86
74329;BME280;62749;51.982;5.916;2023-05-10T09:50:30;100914.00;;;15.26;77.61
74329;BME280;62749;51.982;5.916;2023-05-10T09:53:03;100911.16;;;15.29;78.11
74329;BME280;62749;51.982;5.916;2023-05-10T09:55:40;100911.16;;;15.44;75.29
74329;BME280;62749;51.982;5.916;2023-05-10T09:58:12;100918.66;;;15.23;77.29
74329;BME280;62749;51.982;5.916;2023-05-10T10:00:43;100906.34;;;15.20;79.25
74329;BME280;62749;51.982;5.916;2023-05-10T10:03:15;100913.16;;;15.40;77.94
74329;BME280;62749;51.982;5.916;2023-05-10T10:05:46;100923.50;;;15.45;77.70
74329;BME280;62749;51.982;5.916;2023-05-10T10:08:19;100923.78;;;15.40;77.66
74329;BME280;62749;51.982;5.916;2023-05-10T10:10:49;100923.81;;;15.10;77.20
74329;BME280;62749;51.982;5.916;2023-05-10T10:13:18;100923.03;;;15.08;78.34
74329;BME280;62749;51.982;5.916;2023-05-10T10:15:49;100924.59;;;15.12;78.25
74329;BME280;62749;51.982;5.916;2023-05-10T10:18:20;100924.41;;;15.15;79.90
74329;BME280;62749;51.982;5.916;2023-05-10T10:20:54;100935.63;;;15.20;78.42
74329;BME280;62749;51.982;5.916;2023-05-10T10:23:27;100931.63;;;15.13;78.56
74329;BME280;62749;51.982;5.916;2023-05-10T10:25:57;100926.03;;;15.17;79.57
74329;BME280;62749;51.982;5.916;2023-05-10T10:28:37;100926.91;;;15.32;77.65
74329;BME280;62749;51.982;5.916;2023-05-10T10:31:23;100922.81;;;15.27;78.75
74329;BME280;62749;51.982;5.916;2023-05-10T10:34:01;100922.81;;;15.27;78.62
74329;BME280;62749;51.982;5.916;2023-05-10T10:36:33;100930.91;;;15.25;78.57
74329;BME280;62749;51.982;5.916;2023-05-10T10:39:12;100929.78;;;15.44;77.60
74329;BME280;62749;51.982;5.916;2023-05-10T10:41:50;100926.44;;;15.40;77.06
74329;BME280;62749;51.982;5.916;2023-05-10T10:44:34;100935.22;;;15.57;76.56
74329;BME280;62749;51.982;5.916;2023-05-10T10:50:19;100933.22;;;15.46;77.17
74329;BME280;62749;51.982;5.916;2023-05-10T10:52:50;100924.97;;;15.20;75.79
74329;BME280;62749;51.982;5.916;2023-05-10T10:55:24;100926.34;;;15.27;77.25
74329;BME280;62749;51.982;5.916;2023-05-10T10:57:56;100926.91;;;15.32;77.26
74329;BME280;62749;51.982;5.916;2023-05-10T11:00:32;100928.75;;;15.46;78.81
74329;BME280;62749;51.982;5.916;2023-05-10T11:03:04;100937.22;;;15.39;75.93
74329;BME280;62749;51.982;5.916;2023-05-10T11:05:40;100923.47;;;15.30;76.54
74329;BME280;62749;51.982;5.916;2023-05-10T11:08:15;100936.25;;;15.40;75.72
74329;BME280;62749;51.982;5.916;2023-05-10T11:11:03;100930.16;;;15.38;75.56
74329;BME280;62749;51.982;5.916;2023-05-10T11:13:38;100931.31;;;15.48;75.73
74329;BME280;62749;51.982;5.916;2023-05-10T11:16:16;100933.72;;;15.67;75.97
74329;BME280;62749;51.982;5.916;2023-05-10T11:18:54;100940.94;;;15.79;75.49
74329;BME280;62749;51.982;5.916;2023-05-10T11:21:23;100934.22;;;15.88;73.79
74329;BME280;62749;51.982;5.916;2023-05-10T11:23:54;100939.63;;;16.01;74.29
74329;BME280;62749;51.982;5.916;2023-05-10T11:26:31;100948.50;;;16.16;74.21
74329;BME280;62749;51.982;5.916;2023-05-10T11:29:01;100948.19;;;16.21;73.13
74329;BME280;62749;51.982;5.916;2023-05-10T11:31:31;100951.25;;;16.15;71.35
74329;BME280;62749;51.982;5.916;2023-05-10T11:34:01;100943.72;;;16.21;72.65
74329;BME280;62749;51.982;5.916;2023-05-10T11:36:35;100944.91;;;16.45;70.85
74329;BME280;62749;51.982;5.916;2023-05-10T11:39:05;100945.97;;;16.42;74.64
74329;BME280;62749;51.982;5.916;2023-05-10T11:41:37;100939.69;;;16.43;71.51
74329;BME280;62749;51.982;5.916;2023-05-10T11:44:09;100952.84;;;16.32;70.75
74329;BME280;62749;51.982;5.916;2023-05-10T11:46:38;100946.13;;;16.26;71.87
74329;BME280;62749;51.982;5.916;2023-05-10T11:49:08;100941.41;;;16.44;70.84
74329;BME280;62749;51.982;5.916;2023-05-10T11:51:38;100952.19;;;16.70;70.68
74329;BME280;62749;51.982;5.916;2023-05-10T11:54:10;100939.31;;;16.77;69.24
74329;BME280;62749;51.982;5.916;2023-05-10T11:56:42;100946.34;;;16.78;69.00
74329;BME280;62749;51.982;5.916;2023-05-10T11:59:14;100945.44;;;16.64;71.25
74329;BME280;62749;51.982;5.916;2023-05-10T12:01:43;100943.97;;;16.73;71.23
74329;BME280;62749;51.982;5.916;2023-05-10T12:04:13;100951.06;;;16.87;70.74
74329;BME280;62749;51.982;5.916;2023-05-10T12:06:42;100953.59;;;17.03;71.10
74329;BME280;62749;51.982;5.916;2023-05-10T12:09:12;100951.75;;;17.31;67.38
74329;BME280;62749;51.982;5.916;2023-05-10T12:11:45;100954.97;;;17.36;69.70
74329;BME280;62749;51.982;5.916;2023-05-10T12:14:14;100958.47;;;17.49;68.14
74329;BME280;62749;51.982;5.916;2023-05-10T12:16:45;100959.47;;;17.48;70.99
74329;BME280;62749;51.982;5.916;2023-05-10T12:19:18;100959.03;;;17.55;70.88
74329;BME280;62749;51.982;5.916;2023-05-10T12:21:48;100961.78;;;17.40;68.82
74329;BME280;62749;51.982;5.916;2023-05-10T12:24:18;100946.63;;;17.28;70.51
74329;BME280;62749;51.982;5.916;2023-05-10T12:26:50;100959.88;;;17.42;71.64
74329;BME280;62749;51.982;5.916;2023-05-10T12:29:19;100956.25;;;17.43;68.93
74329;BME280;62749;51.982;5.916;2023-05-10T12:31:51;100953.25;;;17.35;70.54
74329;BME280;62749;51.982;5.916;2023-05-10T12:34:25;100957.31;;;17.54;67.77
74329;BME280;62749;51.982;5.916;2023-05-10T12:36:55;100950.78;;;17.32;69.95
74329;BME280;62749;51.982;5.916;2023-05-10T12:39:24;100955.78;;;17.24;70.12
74329;BME280;62749;51.982;5.916;2023-05-10T12:41:56;100964.09;;;17.19;70.21
74329;BME280;62749;51.982;5.916;2023-05-10T12:44:26;100957.72;;;17.22;69.46
74329;BME280;62749;51.982;5.916;2023-05-10T12:47:08;100963.72;;;17.38;69.24
74329;BME280;62749;51.982;5.916;2023-05-10T12:49:37;100961.47;;;17.32;67.19
74329;BME280;62749;51.982;5.916;2023-05-10T12:52:07;100960.84;;;17.41;68.11
74329;BME280;62749;51.982;5.916;2023-05-10T12:54:36;100968.22;;;17.51;67.57
74329;BME280;62749;51.982;5.916;2023-05-10T12:57:08;100967.78;;;17.44;67.73
74329;BME280;62749;51.982;5.916;2023-05-10T12:59:37;100975.94;;;17.55;68.68
74329;BME280;62749;51.982;5.916;2023-05-10T13:02:06;100973.78;;;17.60;66.21
74329;BME280;62749;51.982;5.916;2023-05-10T13:04:36;100976.56;;;17.72;65.55
74329;BME280;62749;51.982;5.916;2023-05-10T13:07:06;100974.66;;;17.74;67.04
74329;BME280;62749;51.982;5.916;2023-05-10T13:09:36;100974.31;;;17.78;66.42
74329;BME280;62749;51.982;5.916;2023-05-10T13:12:08;100982.97;;;17.82;64.78
74329;BME280;62749;51.982;5.916;2023-05-10T13:14:37;100980.72;;;17.89;63.88
74329;BME280;62749;51.982;5.916;2023-05-10T13:17:07;100979.03;;;17.88;63.80
74329;BME280;62749;51.982;5.916;2023-05-10T13:19:36;100974.88;;;17.84;65.20